Hakuryoumaru No.15 — JD2439 — position and weather

sailwx.info

Track history (hours):
 
Tides and Currents Weather Stations Pressure Air Temp Water Temp Dewpoint Dewpoint Depression Visibility Wind Speed Wind Dir Waves Ship Positions

Hakuryoumaru No.15

Last reported at 2016-Feb-11 22:17 UTC. Time now 2016-Feb-11 23:27 UTC.
Position N 35°28' E 140°44'.

Length 80 m; draft 5.4 m.

Type: Tanker. MMSI: 431000243.

Date/timePositionNaut miles runAvg speedWind from/ knotsBaromVisibWave heightAir tempDewpointWater temp
2016-Feb-11 22:17N 35°28' E 140°44'1512.7
2016-Feb-11 21:05N 35°16' E 140°32'2013.3
2016-Feb-11 19:33N 35°01' E 140°14'1412.8
2016-Feb-11 18:29N 34°54' E 140°01'1111.1
2016-Feb-11 17:29N 34°52' E 139°47'12 9.9
2016-Feb-11 16:17N 35°04' E 139°44'912.0
2016-Feb-11 15:33N 35°12' E 139°46'1212.1
2016-Feb-11 14:33N 35°24' E 139°43'1212.3
2016-Feb-11 13:33N 35°30' E 139°56'5 4.7
2016-Feb-11 12:32N 35°30' E 140°02'0 0.0
2016-Feb-11 11:34N 35°30' E 140°02'0 0.0
2016-Feb-11 10:33N 35°30' E 140°02'0 0.0
2016-Feb-11 09:33N 35°30' E 140°02'3 2.5
2016-Feb-11 08:33N 35°31' E 139°59'0 0.1
2016-Feb-11 07:33N 35°31' E 139°59'0 0.0
2016-Feb-11 06:33N 35°31' E 139°59'0 0.0
2016-Feb-11 05:33N 35°31' E 139°59'0 0.0
2016-Feb-11 04:33N 35°31' E 139°59'0 0.0
2016-Feb-11 03:27N 35°31' E 139°59'0 0.0
2016-Feb-11 02:30N 35°31' E 139°59'0 0.0
2016-Feb-11 01:33N 35°31' E 139°59'0 0.0
2016-Feb-11 00:33N 35°31' E 139°59'0 0.0
2016-Feb-10 23:33N 35°31' E 139°59'0 0.0
2016-Feb-10 22:33N 35°31' E 139°59'0 0.0
2016-Feb-10 21:33N 35°31' E 139°59'0 0.0
2016-Feb-10 20:33N 35°31' E 139°59'0 0.0
2016-Feb-10 19:27N 35°31' E 139°59'0 0.0
2016-Feb-10 18:33N 35°31' E 139°59'0 0.0
2016-Feb-10 17:33N 35°31' E 139°59'0 0.0
2016-Feb-10 16:27N 35°31' E 139°59'0 0.0
2016-Feb-10 15:33N 35°31' E 139°59'0 0.0
2016-Feb-10 14:33N 35°31' E 139°59'0 0.0
2016-Feb-10 13:27N 35°31' E 139°59'0 0.0
2016-Feb-10 12:33N 35°31' E 139°59'1010.3
2016-Feb-10 11:33N 35°26' E 139°48'9 0.2
2016-Feb-08 11:33N 35°17' E 139°45'1110.8
2016-Feb-08 10:33N 35°28' E 139°48'1111.3
2016-Feb-08 09:33N 35°30' E 140°02'0 0.0
2016-Feb-08 08:33N 35°30' E 140°02'0 0.0
2016-Feb-08 07:33N 35°30' E 140°02'0 0.0
2016-Feb-08 06:33N 35°30' E 140°02'0 0.0
2016-Feb-08 05:33N 35°30' E 140°02'1 1.3
2016-Feb-08 04:33N 35°30' E 140°00'1 1.1
2016-Feb-08 03:32N 35°31' E 139°59'5 5.4
2016-Feb-08 02:33N 35°29' E 139°53'7 7.2
2016-Feb-08 01:33N 35°22' E 139°52'0 0.0
2016-Feb-08 00:34N 35°22' E 139°52'0 0.0
2016-Feb-07 23:33N 35°22' E 139°52'1 1.0
2016-Feb-07 22:34N 35°23' E 139°51'6 5.5
2016-Feb-07 21:31N 35°23' E 139°44'0 0.0
2016-Feb-07 20:31N 35°23' E 139°44'0 0.0
2016-Feb-07 19:31N 35°23' E 139°44'0 0.1
2016-Feb-07 18:28N 35°23' E 139°44'0 0.0
2016-Feb-07 17:31N 35°23' E 139°44'0 0.0
2016-Feb-07 16:31N 35°23' E 139°44'0 0.0
2016-Feb-07 15:31N 35°23' E 139°44'0 0.0
2016-Feb-07 14:31N 35°23' E 139°44'0 0.0
2016-Feb-07 13:28N 35°23' E 139°44'0 0.0
2016-Feb-07 12:31N 35°23' E 139°44'0 0.0
2016-Feb-07 11:31N 35°23' E 139°44'0 0.0
2016-Feb-07 10:31N 35°23' E 139°44'0 0.0
2016-Feb-07 09:31N 35°23' E 139°44'0 0.0
2016-Feb-07 08:31N 35°23' E 139°44'0 0.0
2016-Feb-07 07:31N 35°23' E 139°44'0 0.0
2016-Feb-07 06:31N 35°23' E 139°44'0 0.0
2016-Feb-07 05:28N 35°23' E 139°44'0 0.0
2016-Feb-07 04:31N 35°23' E 139°44'0 0.0
2016-Feb-07 03:28N 35°23' E 139°44'0 0.0
2016-Feb-07 02:31N 35°23' E 139°44'0 0.0
2016-Feb-07 01:31N 35°23' E 139°44'0 0.0
2016-Feb-07 00:31N 35°23' E 139°44'0 0.0
2016-Feb-06 23:31N 35°23' E 139°44'0 0.0
2016-Feb-06 22:31N 35°23' E 139°44'0 0.0
2016-Feb-06 21:31N 35°23' E 139°44'8 8.7
2016-Feb-06 20:34N 35°15' E 139°47'48 1.5
2016-Feb-05 13:29N 35°28' E 140°43'1512.9
2016-Feb-05 12:19N 35°16' E 140°32'2312.9
2016-Feb-05 10:32N 35°00' E 140°12'23 7.8
2016-Feb-05 07:32N 35°10' E 139°46'1212.6
2016-Feb-05 06:33N 35°22' E 139°42'1212.0
2016-Feb-05 05:33N 35°30' E 139°53'7 7.0
2016-Feb-05 04:33N 35°30' E 140°02'0 0.0
2016-Feb-05 03:33N 35°30' E 140°02'0 0.0
2016-Feb-05 02:33N 35°30' E 140°02'0 0.0
2016-Feb-05 01:33N 35°30' E 140°02'2 1.7
2016-Feb-05 00:33N 35°31' E 140°00'1 0.7
2016-Feb-04 23:28N 35°31' E 139°59'0 0.0
2016-Feb-04 22:28N 35°31' E 139°59'0 0.0
2016-Feb-04 21:28N 35°31' E 139°59'0 0.0
2016-Feb-04 20:25N 35°31' E 139°59'0 0.0
2016-Feb-04 19:31N 35°31' E 139°59'0 0.0
2016-Feb-04 18:22N 35°31' E 139°59'0 0.0
2016-Feb-04 17:28N 35°31' E 139°59'0 0.0
2016-Feb-04 16:31N 35°31' E 139°59'3 3.4
2016-Feb-04 15:33N 35°30' E 139°56'1312.8
2016-Feb-04 14:33N 35°21' E 139°45'1312.3
2016-Feb-04 13:31N 35°08' E 139°45'10 0.3
2016-Feb-03 04:33N 35°18' E 139°44'8 7.7
2016-Feb-03 03:33N 35°24' E 139°38'0 0.0
2016-Feb-03 02:33N 35°24' E 139°38'0 0.0
2016-Feb-03 01:33N 35°24' E 139°38'0 0.0
2016-Feb-03 00:33N 35°24' E 139°38'0 0.0
2016-Feb-02 23:33N 35°24' E 139°38'2 2.3
2016-Feb-02 22:33N 35°23' E 139°40'1 0.6
2016-Feb-02 21:33N 35°22' E 139°40'0 0.0
2016-Feb-02 20:33N 35°22' E 139°40'0 0.1
2016-Feb-02 19:33N 35°22' E 139°40'0 0.0
2016-Feb-02 18:33N 35°22' E 139°40'0 0.0
2016-Feb-02 17:33N 35°22' E 139°40'0 0.0
2016-Feb-02 16:33N 35°22' E 139°40'0 0.0
2016-Feb-02 15:33N 35°22' E 139°40'0 0.0
2016-Feb-02 14:33N 35°22' E 139°40'0 0.0
2016-Feb-02 13:33N 35°22' E 139°40'0 0.0
2016-Feb-02 12:33N 35°22' E 139°40'0 0.0
2016-Feb-02 11:33N 35°22' E 139°40'9 8.9
2016-Feb-02 10:33N 35°15' E 139°47'  
Track history (hours):
 
Tides and Currents Weather Stations Pressure Air Temp Water Temp Dewpoint Dewpoint Depression Visibility Wind Speed Wind Dir Waves Ship Positions

Hakuryoumaru No.15

Last reported at 2016-Feb-11 22:17 UTC. Time now 2016-Feb-11 23:27 UTC.
Position N 35°28' E 140°44'.

Length 80 m; draft 5.4 m.

Type: Tanker. MMSI: 431000243.

Date/timePositionNaut miles runAvg speedWind from/ knotsBaromVisibWave heightAir tempDewpointWater temp
2016-Feb-11 22:17N 35°28' E 140°44'1512.7
2016-Feb-11 21:05N 35°16' E 140°32'2013.3
2016-Feb-11 19:33N 35°01' E 140°14'1412.8
2016-Feb-11 18:29N 34°54' E 140°01'1111.1
2016-Feb-11 17:29N 34°52' E 139°47'12 9.9
2016-Feb-11 16:17N 35°04' E 139°44'912.0
2016-Feb-11 15:33N 35°12' E 139°46'1212.1
2016-Feb-11 14:33N 35°24' E 139°43'1212.3
2016-Feb-11 13:33N 35°30' E 139°56'5 4.7
2016-Feb-11 12:32N 35°30' E 140°02'0 0.0
2016-Feb-11 11:34N 35°30' E 140°02'0 0.0
2016-Feb-11 10:33N 35°30' E 140°02'0 0.0
2016-Feb-11 09:33N 35°30' E 140°02'3 2.5
2016-Feb-11 08:33N 35°31' E 139°59'0 0.1
2016-Feb-11 07:33N 35°31' E 139°59'0 0.0
2016-Feb-11 06:33N 35°31' E 139°59'0 0.0
2016-Feb-11 05:33N 35°31' E 139°59'0 0.0
2016-Feb-11 04:33N 35°31' E 139°59'0 0.0
2016-Feb-11 03:27N 35°31' E 139°59'0 0.0
2016-Feb-11 02:30N 35°31' E 139°59'0 0.0
2016-Feb-11 01:33N 35°31' E 139°59'0 0.0
2016-Feb-11 00:33N 35°31' E 139°59'0 0.0
2016-Feb-10 23:33N 35°31' E 139°59'0 0.0
2016-Feb-10 22:33N 35°31' E 139°59'0 0.0
2016-Feb-10 21:33N 35°31' E 139°59'0 0.0
2016-Feb-10 20:33N 35°31' E 139°59'0 0.0
2016-Feb-10 19:27N 35°31' E 139°59'0 0.0
2016-Feb-10 18:33N 35°31' E 139°59'0 0.0
2016-Feb-10 17:33N 35°31' E 139°59'0 0.0
2016-Feb-10 16:27N 35°31' E 139°59'0 0.0
2016-Feb-10 15:33N 35°31' E 139°59'0 0.0
2016-Feb-10 14:33N 35°31' E 139°59'0 0.0
2016-Feb-10 13:27N 35°31' E 139°59'0 0.0
2016-Feb-10 12:33N 35°31' E 139°59'1010.3
2016-Feb-10 11:33N 35°26' E 139°48'9 0.2
2016-Feb-08 11:33N 35°17' E 139°45'1110.8
2016-Feb-08 10:33N 35°28' E 139°48'1111.3
2016-Feb-08 09:33N 35°30' E 140°02'0 0.0
2016-Feb-08 08:33N 35°30' E 140°02'0 0.0
2016-Feb-08 07:33N 35°30' E 140°02'0 0.0
2016-Feb-08 06:33N 35°30' E 140°02'0 0.0
2016-Feb-08 05:33N 35°30' E 140°02'1 1.3
2016-Feb-08 04:33N 35°30' E 140°00'1 1.1
2016-Feb-08 03:32N 35°31' E 139°59'5 5.4
2016-Feb-08 02:33N 35°29' E 139°53'7 7.2
2016-Feb-08 01:33N 35°22' E 139°52'0 0.0
2016-Feb-08 00:34N 35°22' E 139°52'0 0.0
2016-Feb-07 23:33N 35°22' E 139°52'1 1.0
2016-Feb-07 22:34N 35°23' E 139°51'6 5.5
2016-Feb-07 21:31N 35°23' E 139°44'0 0.0
2016-Feb-07 20:31N 35°23' E 139°44'0 0.0
2016-Feb-07 19:31N 35°23' E 139°44'0 0.1
2016-Feb-07 18:28N 35°23' E 139°44'0 0.0
2016-Feb-07 17:31N 35°23' E 139°44'0 0.0
2016-Feb-07 16:31N 35°23' E 139°44'0 0.0
2016-Feb-07 15:31N 35°23' E 139°44'0 0.0
2016-Feb-07 14:31N 35°23' E 139°44'0 0.0
2016-Feb-07 13:28N 35°23' E 139°44'0 0.0
2016-Feb-07 12:31N 35°23' E 139°44'0 0.0
2016-Feb-07 11:31N 35°23' E 139°44'0 0.0
2016-Feb-07 10:31N 35°23' E 139°44'0 0.0
2016-Feb-07 09:31N 35°23' E 139°44'0 0.0
2016-Feb-07 08:31N 35°23' E 139°44'0 0.0
2016-Feb-07 07:31N 35°23' E 139°44'0 0.0
2016-Feb-07 06:31N 35°23' E 139°44'0 0.0
2016-Feb-07 05:28N 35°23' E 139°44'0 0.0
2016-Feb-07 04:31N 35°23' E 139°44'0 0.0
2016-Feb-07 03:28N 35°23' E 139°44'0 0.0
2016-Feb-07 02:31N 35°23' E 139°44'0 0.0
2016-Feb-07 01:31N 35°23' E 139°44'0 0.0
2016-Feb-07 00:31N 35°23' E 139°44'0 0.0
2016-Feb-06 23:31N 35°23' E 139°44'0 0.0
2016-Feb-06 22:31N 35°23' E 139°44'0 0.0
2016-Feb-06 21:31N 35°23' E 139°44'8 8.7
2016-Feb-06 20:34N 35°15' E 139°47'48 1.5
2016-Feb-05 13:29N 35°28' E 140°43'1512.9
2016-Feb-05 12:19N 35°16' E 140°32'2312.9
2016-Feb-05 10:32N 35°00' E 140°12'23 7.8
2016-Feb-05 07:32N 35°10' E 139°46'1212.6
2016-Feb-05 06:33N 35°22' E 139°42'1212.0
2016-Feb-05 05:33N 35°30' E 139°53'7 7.0
2016-Feb-05 04:33N 35°30' E 140°02'0 0.0
2016-Feb-05 03:33N 35°30' E 140°02'0 0.0
2016-Feb-05 02:33N 35°30' E 140°02'0 0.0
2016-Feb-05 01:33N 35°30' E 140°02'2 1.7
2016-Feb-05 00:33N 35°31' E 140°00'1 0.7
2016-Feb-04 23:28N 35°31' E 139°59'0 0.0
2016-Feb-04 22:28N 35°31' E 139°59'0 0.0
2016-Feb-04 21:28N 35°31' E 139°59'0 0.0
2016-Feb-04 20:25N 35°31' E 139°59'0 0.0
2016-Feb-04 19:31N 35°31' E 139°59'0 0.0
2016-Feb-04 18:22N 35°31' E 139°59'0 0.0
2016-Feb-04 17:28N 35°31' E 139°59'0 0.0
2016-Feb-04 16:31N 35°31' E 139°59'3 3.4
2016-Feb-04 15:33N 35°30' E 139°56'1312.8
2016-Feb-04 14:33N 35°21' E 139°45'1312.3
2016-Feb-04 13:31N 35°08' E 139°45'10 0.3
2016-Feb-03 04:33N 35°18' E 139°44'8 7.7
2016-Feb-03 03:33N 35°24' E 139°38'0 0.0
2016-Feb-03 02:33N 35°24' E 139°38'0 0.0
2016-Feb-03 01:33N 35°24' E 139°38'0 0.0
2016-Feb-03 00:33N 35°24' E 139°38'0 0.0
2016-Feb-02 23:33N 35°24' E 139°38'2 2.3
2016-Feb-02 22:33N 35°23' E 139°40'1 0.6
2016-Feb-02 21:33N 35°22' E 139°40'0 0.0
2016-Feb-02 20:33N 35°22' E 139°40'0 0.1
2016-Feb-02 19:33N 35°22' E 139°40'0 0.0
2016-Feb-02 18:33N 35°22' E 139°40'0 0.0
2016-Feb-02 17:33N 35°22' E 139°40'0 0.0
2016-Feb-02 16:33N 35°22' E 139°40'0 0.0
2016-Feb-02 15:33N 35°22' E 139°40'0 0.0
2016-Feb-02 14:33N 35°22' E 139°40'0 0.0
2016-Feb-02 13:33N 35°22' E 139°40'0 0.0
2016-Feb-02 12:33N 35°22' E 139°40'0 0.0
2016-Feb-02 11:33N 35°22' E 139°40'9 8.9
2016-Feb-02 10:33N 35°15' E 139°47'  

Dump ship's entire track history